sensor_id;sensor_type;location;lat;lon;timestamp;pressure;altitude;pressure_sealevel;temperature;humidity
9325;BME280;4701;51.566;6.776;2022-09-12T05:00:30;101292.03;;;10.90;100.00
9325;BME280;4701;51.566;6.776;2022-09-12T05:02:32;101294.50;;;10.91;100.00
9325;BME280;4701;51.566;6.776;2022-09-12T05:04:34;101291.03;;;10.96;100.00
9325;BME280;4701;51.566;6.776;2022-09-12T05:06:36;101292.66;;;10.97;100.00
9325;BME280;4701;51.566;6.776;2022-09-12T05:08:38;101290.75;;;10.97;100.00
9325;BME280;4701;51.566;6.776;2022-09-12T05:10:40;101281.47;;;10.98;100.00
9325;BME280;4701;51.566;6.776;2022-09-12T05:12:42;101278.25;;;11.02;100.00
9325;BME280;4701;51.566;6.776;2022-09-12T05:14:44;101287.50;;;11.00;100.00
9325;BME280;4701;51.566;6.776;2022-09-12T05:16:47;101279.66;;;11.04;100.00
9325;BME280;4701;51.566;6.776;2022-09-12T05:18:49;101281.31;;;11.05;100.00
9325;BME280;4701;51.566;6.776;2022-09-12T05:20:51;101286.22;;;11.08;100.00
9325;BME280;4701;51.566;6.776;2022-09-12T05:22:53;101290.94;;;11.13;100.00
9325;BME280;4701;51.566;6.776;2022-09-12T05:24:55;101287.41;;;11.17;100.00
9325;BME280;4701;51.566;6.776;2022-09-12T05:26:57;101286.91;;;11.20;100.00
9325;BME280;4701;51.566;6.776;2022-09-12T05:28:59;101286.13;;;11.25;100.00
9325;BME280;4701;51.566;6.776;2022-09-12T05:31:02;101286.19;;;11.30;100.00
9325;BME280;4701;51.566;6.776;2022-09-12T05:33:05;101285.41;;;11.34;100.00
9325;BME280;4701;51.566;6.776;2022-09-12T05:35:07;101286.22;;;11.35;100.00
9325;BME280;4701;51.566;6.776;2022-09-12T05:37:09;101283.28;;;11.42;100.00
9325;BME280;4701;51.566;6.776;2022-09-12T05:39:11;101282.28;;;11.48;100.00
9325;BME280;4701;51.566;6.776;2022-09-12T05:41:14;101281.72;;;11.51;100.00
9325;BME280;4701;51.566;6.776;2022-09-12T05:43:16;101286.44;;;11.55;100.00
9325;BME280;4701;51.566;6.776;2022-09-12T05:45:19;101276.38;;;11.61;100.00
9325;BME280;4701;51.566;6.776;2022-09-12T05:47:21;101282.97;;;11.65;100.00
9325;BME280;4701;51.566;6.776;2022-09-12T05:49:25;101284.91;;;11.69;100.00
9325;BME280;4701;51.566;6.776;2022-09-12T05:51:27;101283.06;;;11.75;100.00
9325;BME280;4701;51.566;6.776;2022-09-12T05:53:30;101278.47;;;11.81;100.00
9325;BME280;4701;51.566;6.776;2022-09-12T05:55:32;101282.88;;;11.87;100.00
9325;BME280;4701;51.566;6.776;2022-09-12T05:57:34;101282.91;;;11.92;100.00
9325;BME280;4701;51.566;6.776;2022-09-12T05:59:36;101289.25;;;11.97;100.00
9325;BME280;4701;51.566;6.776;2022-09-12T06:01:38;101287.09;;;12.04;100.00
9325;BME280;4701;51.566;6.776;2022-09-12T06:03:41;101297.78;;;12.11;100.00
9325;BME280;4701;51.566;6.776;2022-09-12T06:05:45;101297.03;;;12.16;100.00
9325;BME280;4701;51.566;6.776;2022-09-12T06:07:47;101300.34;;;12.23;100.00
9325;BME280;4701;51.566;6.776;2022-09-12T06:09:48;101294.91;;;12.28;100.00
9325;BME280;4701;51.566;6.776;2022-09-12T06:11:50;101296.56;;;12.34;100.00
9325;BME280;4701;51.566;6.776;2022-09-12T06:13:52;101301.81;;;12.40;100.00
9325;BME280;4701;51.566;6.776;2022-09-12T06:15:54;101295.53;;;12.45;100.00
9325;BME280;4701;51.566;6.776;2022-09-12T06:17:56;101300.75;;;12.51;100.00
9325;BME280;4701;51.566;6.776;2022-09-12T06:19:57;101301.06;;;12.55;100.00
9325;BME280;4701;51.566;6.776;2022-09-12T06:22:01;101307.09;;;12.62;100.00
9325;BME280;4701;51.566;6.776;2022-09-12T06:24:03;101307.94;;;12.68;100.00
9325;BME280;4701;51.566;6.776;2022-09-12T06:26:07;101308.25;;;12.71;100.00
9325;BME280;4701;51.566;6.776;2022-09-12T06:28:09;101297.88;;;12.78;100.00
9325;BME280;4701;51.566;6.776;2022-09-12T06:30:11;101294.06;;;12.84;100.00
9325;BME280;4701;51.566;6.776;2022-09-12T06:32:13;101296.84;;;12.89;100.00
9325;BME280;4701;51.566;6.776;2022-09-12T06:34:16;101299.03;;;12.98;100.00
9325;BME280;4701;51.566;6.776;2022-09-12T06:36:19;101294.97;;;13.05;100.00
9325;BME280;4701;51.566;6.776;2022-09-12T06:38:23;101299.34;;;13.11;100.00
9325;BME280;4701;51.566;6.776;2022-09-12T06:40:25;101299.94;;;13.18;100.00
9325;BME280;4701;51.566;6.776;2022-09-12T06:42:29;101304.09;;;13.26;100.00
9325;BME280;4701;51.566;6.776;2022-09-12T06:44:31;101300.81;;;13.34;100.00
9325;BME280;4701;51.566;6.776;2022-09-12T06:46:32;101308.75;;;13.41;100.00
9325;BME280;4701;51.566;6.776;2022-09-12T06:48:34;101302.75;;;13.49;100.00
9325;BME280;4701;51.566;6.776;2022-09-12T06:50:36;101308.22;;;13.54;100.00
9325;BME280;4701;51.566;6.776;2022-09-12T06:52:38;101305.75;;;13.62;100.00
9325;BME280;4701;51.566;6.776;2022-09-12T06:54:41;101302.47;;;13.71;100.00
9325;BME280;4701;51.566;6.776;2022-09-12T06:56:43;101300.00;;;13.79;100.00
9325;BME280;4701;51.566;6.776;2022-09-12T06:58:46;101306.06;;;13.86;100.00
9325;BME280;4701;51.566;6.776;2022-09-12T07:00:48;101306.59;;;13.93;100.00
9325;BME280;4701;51.566;6.776;2022-09-12T07:02:52;101305.22;;;14.01;100.00
9325;BME280;4701;51.566;6.776;2022-09-12T07:04:54;101299.44;;;14.08;100.00
9325;BME280;4701;51.566;6.776;2022-09-12T07:06:56;101295.03;;;14.17;100.00
9325;BME280;4701;51.566;6.776;2022-09-12T07:08:59;101296.38;;;14.24;100.00
9325;BME280;4701;51.566;6.776;2022-09-12T07:11:09;101300.47;;;14.32;100.00
9325;BME280;4701;51.566;6.776;2022-09-12T07:13:11;101310.91;;;14.40;100.00
9325;BME280;4701;51.566;6.776;2022-09-12T07:15:13;101301.56;;;14.46;100.00
9325;BME280;4701;51.566;6.776;2022-09-12T07:17:15;101303.75;;;14.49;100.00
9325;BME280;4701;51.566;6.776;2022-09-12T07:19:17;101300.19;;;14.54;100.00
9325;BME280;4701;51.566;6.776;2022-09-12T07:21:19;101301.25;;;14.58;100.00
9325;BME280;4701;51.566;6.776;2022-09-12T07:23:22;101296.28;;;14.65;100.00
9325;BME280;4701;51.566;6.776;2022-09-12T07:25:23;101292.69;;;14.74;100.00
9325;BME280;4701;51.566;6.776;2022-09-12T07:27:27;101292.38;;;14.86;100.00
9325;BME280;4701;51.566;6.776;2022-09-12T07:29:29;101293.44;;;14.95;100.00
9325;BME280;4701;51.566;6.776;2022-09-12T07:31:30;101287.91;;;15.05;100.00
9325;BME280;4701;51.566;6.776;2022-09-12T07:33:33;101290.03;;;15.13;100.00
9325;BME280;4701;51.566;6.776;2022-09-12T07:35:35;101287.78;;;15.21;100.00
9325;BME280;4701;51.566;6.776;2022-09-12T07:37:36;101288.84;;;15.30;100.00
9325;BME280;4701;51.566;6.776;2022-09-12T07:39:38;101289.06;;;15.38;100.00
9325;BME280;4701;51.566;6.776;2022-09-12T07:41:40;101295.88;;;15.46;100.00
9325;BME280;4701;51.566;6.776;2022-09-12T07:43:44;101294.19;;;15.55;100.00
9325;BME280;4701;51.566;6.776;2022-09-12T07:45:46;101295.50;;;15.63;100.00
9325;BME280;4701;51.566;6.776;2022-09-12T07:47:47;101301.47;;;15.70;100.00
9325;BME280;4701;51.566;6.776;2022-09-12T07:49:49;101303.06;;;15.76;100.00
9325;BME280;4701;51.566;6.776;2022-09-12T07:51:52;101298.94;;;15.78;100.00
9325;BME280;4701;51.566;6.776;2022-09-12T07:53:54;101300.28;;;15.81;100.00
9325;BME280;4701;51.566;6.776;2022-09-12T07:55:56;101299.97;;;15.82;100.00
9325;BME280;4701;51.566;6.776;2022-09-12T07:57:58;101298.03;;;15.88;100.00
9325;BME280;4701;51.566;6.776;2022-09-12T08:00:02;101305.44;;;15.87;99.87
9325;BME280;4701;51.566;6.776;2022-09-12T08:02:12;101302.94;;;15.91;99.22
9325;BME280;4701;51.566;6.776;2022-09-12T08:04:14;101301.19;;;16.00;98.93
9325;BME280;4701;51.566;6.776;2022-09-12T08:06:18;101302.50;;;16.08;98.56
9325;BME280;4701;51.566;6.776;2022-09-12T08:08:20;101298.91;;;16.12;98.34
9325;BME280;4701;51.566;6.776;2022-09-12T08:10:22;101294.16;;;16.18;97.75
9325;BME280;4701;51.566;6.776;2022-09-12T08:12:26;101294.13;;;16.23;97.03
9325;BME280;4701;51.566;6.776;2022-09-12T08:14:28;101294.88;;;16.28;96.64
9325;BME280;4701;51.566;6.776;2022-09-12T08:16:32;101298.16;;;16.31;96.10
9325;BME280;4701;51.566;6.776;2022-09-12T08:18:35;101299.44;;;16.38;96.23
9325;BME280;4701;51.566;6.776;2022-09-12T08:20:36;101294.13;;;16.47;96.10
9325;BME280;4701;51.566;6.776;2022-09-12T08:22:38;101290.41;;;16.61;96.21
9325;BME280;4701;51.566;6.776;2022-09-12T08:24:40;101291.56;;;16.79;96.22
9325;BME280;4701;51.566;6.776;2022-09-12T08:26:43;101293.94;;;16.86;93.69
9325;BME280;4701;51.566;6.776;2022-09-12T08:28:45;101298.06;;;16.88;91.49
9325;BME280;4701;51.566;6.776;2022-09-12T08:30:47;101294.78;;;16.86;91.36
9325;BME280;4701;51.566;6.776;2022-09-12T08:32:50;101291.16;;;16.91;91.03
9325;BME280;4701;51.566;6.776;2022-09-12T08:34:52;101291.16;;;16.91;91.14
9325;BME280;4701;51.566;6.776;2022-09-12T08:36:54;101288.69;;;16.89;90.17
9325;BME280;4701;51.566;6.776;2022-09-12T08:38:57;101281.31;;;17.03;90.17
9325;BME280;4701;51.566;6.776;2022-09-12T08:41:03;101280.50;;;17.22;90.43
9325;BME280;4701;51.566;6.776;2022-09-12T08:43:13;101286.09;;;17.35;89.93
9325;BME280;4701;51.566;6.776;2022-09-12T08:45:25;101287.03;;;17.45;87.70
9325;BME280;4701;51.566;6.776;2022-09-12T08:47:35;101280.72;;;17.44;86.10
9325;BME280;4701;51.566;6.776;2022-09-12T08:49:46;101286.47;;;17.48;85.65
9325;BME280;4701;51.566;6.776;2022-09-12T08:51:50;101281.66;;;17.53;86.32
9325;BME280;4701;51.566;6.776;2022-09-12T08:53:55;101288.19;;;17.62;85.14
9325;BME280;4701;51.566;6.776;2022-09-12T08:55:59;101291.88;;;17.71;84.81
9325;BME280;4701;51.566;6.776;2022-09-12T08:58:08;101294.09;;;17.88;85.02
9325;BME280;4701;51.566;6.776;2022-09-12T09:00:13;101295.84;;;17.98;84.29
9325;BME280;4701;51.566;6.776;2022-09-12T09:02:40;101293.44;;;18.10;84.36
9325;BME280;4701;51.566;6.776;2022-09-12T09:04:50;101296.13;;;18.29;84.34
9325;BME280;4701;51.566;6.776;2022-09-12T09:07:20;101289.56;;;18.38;82.39
9325;BME280;4701;51.566;6.776;2022-09-12T09:09:39;101292.03;;;18.40;79.69
9325;BME280;4701;51.566;6.776;2022-09-12T09:11:54;101286.09;;;18.46;79.43
9325;BME280;4701;51.566;6.776;2022-09-12T09:14:08;101281.91;;;18.49;80.10
9325;BME280;4701;51.566;6.776;2022-09-12T09:16:35;101281.63;;;18.50;79.00
9325;BME280;4701;51.566;6.776;2022-09-12T09:18:39;101286.84;;;18.52;78.94
9325;BME280;4701;51.566;6.776;2022-09-12T09:20:47;101284.38;;;18.50;79.08
9325;BME280;4701;51.566;6.776;2022-09-12T09:22:52;101274.97;;;18.51;77.87
9325;BME280;4701;51.566;6.776;2022-09-12T09:24:58;101281.00;;;18.53;77.99
9325;BME280;4701;51.566;6.776;2022-09-12T09:27:05;101280.63;;;18.60;77.52
9325;BME280;4701;51.566;6.776;2022-09-12T09:29:16;101275.22;;;18.69;77.54
9325;BME280;4701;51.566;6.776;2022-09-12T09:31:20;101277.25;;;18.77;77.12
9325;BME280;4701;51.566;6.776;2022-09-12T09:33:25;101274.88;;;18.84;76.94
9325;BME280;4701;51.566;6.776;2022-09-12T09:35:38;101274.16;;;18.92;77.69
9325;BME280;4701;51.566;6.776;2022-09-12T09:37:55;101281.28;;;19.07;77.30
9325;BME280;4701;51.566;6.776;2022-09-12T09:40:06;101268.88;;;19.18;76.95
9325;BME280;4701;51.566;6.776;2022-09-12T09:42:23;101265.66;;;19.24;75.40
9325;BME280;4701;51.566;6.776;2022-09-12T09:44:28;101258.56;;;19.32;75.05
9325;BME280;4701;51.566;6.776;2022-09-12T09:46:31;101262.53;;;19.40;75.09
9325;BME280;4701;51.566;6.776;2022-09-12T09:48:34;101260.78;;;19.44;75.00
9325;BME280;4701;51.566;6.776;2022-09-12T09:50:38;101265.72;;;19.47;75.69
9325;BME280;4701;51.566;6.776;2022-09-12T09:52:40;101264.47;;;19.53;74.99
9325;BME280;4701;51.566;6.776;2022-09-12T09:54:46;101261.56;;;19.58;74.58
9325;BME280;4701;51.566;6.776;2022-09-12T09:56:50;101255.47;;;19.70;74.19
9325;BME280;4701;51.566;6.776;2022-09-12T09:58:52;101252.97;;;19.82;72.49
9325;BME280;4701;51.566;6.776;2022-09-12T10:00:58;101251.50;;;19.84;71.98
9325;BME280;4701;51.566;6.776;2022-09-12T10:03:05;101252.69;;;19.92;72.40
9325;BME280;4701;51.566;6.776;2022-09-12T10:05:20;101245.56;;;19.99;72.44
9325;BME280;4701;51.566;6.776;2022-09-12T10:07:23;101248.22;;;20.05;71.92
9325;BME280;4701;51.566;6.776;2022-09-12T10:09:27;101245.78;;;20.12;71.14
9325;BME280;4701;51.566;6.776;2022-09-12T10:11:31;101245.00;;;20.20;71.61
9325;BME280;4701;51.566;6.776;2022-09-12T10:13:39;101233.31;;;20.23;71.27
9325;BME280;4701;51.566;6.776;2022-09-12T10:15:54;101229.56;;;20.27;69.48
9325;BME280;4701;51.566;6.776;2022-09-12T10:17:57;101222.47;;;20.35;68.98
9325;BME280;4701;51.566;6.776;2022-09-12T10:19:59;101226.25;;;20.39;67.74
9325;BME280;4701;51.566;6.776;2022-09-12T10:22:02;101226.41;;;20.43;68.75
9325;BME280;4701;51.566;6.776;2022-09-12T10:24:16;101222.38;;;20.49;67.42
9325;BME280;4701;51.566;6.776;2022-09-12T10:26:21;101225.47;;;20.56;67.70
9325;BME280;4701;51.566;6.776;2022-09-12T10:28:30;101221.09;;;20.63;67.62
9325;BME280;4701;51.566;6.776;2022-09-12T10:30:32;101205.44;;;20.67;67.82
9325;BME280;4701;51.566;6.776;2022-09-12T10:32:37;101214.13;;;20.74;67.36
9325;BME280;4701;51.566;6.776;2022-09-12T10:34:42;101204.00;;;20.78;66.35
9325;BME280;4701;51.566;6.776;2022-09-12T10:36:45;101219.00;;;20.86;64.64
9325;BME280;4701;51.566;6.776;2022-09-12T10:38:52;101205.66;;;20.88;64.40
9325;BME280;4701;51.566;6.776;2022-09-12T10:40:56;101201.88;;;20.93;63.64
9325;BME280;4701;51.566;6.776;2022-09-12T10:43:00;101200.28;;;20.92;64.16
9325;BME280;4701;51.566;6.776;2022-09-12T10:45:04;101197.34;;;20.97;65.36
9325;BME280;4701;51.566;6.776;2022-09-12T10:47:21;101197.84;;;21.07;64.50
9325;BME280;4701;51.566;6.776;2022-09-12T10:49:26;101197.19;;;21.19;62.05
9325;BME280;4701;51.566;6.776;2022-09-12T10:51:29;101196.38;;;21.27;61.46
9325;BME280;4701;51.566;6.776;2022-09-12T10:53:38;101194.59;;;21.31;62.23
9325;BME280;4701;51.566;6.776;2022-09-12T10:55:53;101187.91;;;21.41;62.57
9325;BME280;4701;51.566;6.776;2022-09-12T11:00:22;101189.19;;;21.52;59.38
9325;BME280;4701;51.566;6.776;2022-09-12T11:02:35;101189.50;;;21.59;60.51
9325;BME280;4701;51.566;6.776;2022-09-12T11:04:46;101170.06;;;21.68;60.61
9325;BME280;4701;51.566;6.776;2022-09-12T11:07:04;101184.22;;;21.75;59.46
9325;BME280;4701;51.566;6.776;2022-09-12T11:09:14;101185.53;;;21.77;60.58
9325;BME280;4701;51.566;6.776;2022-09-12T11:11:36;101179.16;;;21.85;58.66
9325;BME280;4701;51.566;6.776;2022-09-12T11:13:50;101185.13;;;21.96;57.82
9325;BME280;4701;51.566;6.776;2022-09-12T11:16:08;101177.47;;;21.93;55.58
9325;BME280;4701;51.566;6.776;2022-09-12T11:18:21;101174.84;;;21.97;57.04
9325;BME280;4701;51.566;6.776;2022-09-12T11:20:38;101179.44;;;22.01;56.84
9325;BME280;4701;51.566;6.776;2022-09-12T11:23:02;101170.78;;;22.03;56.79
9325;BME280;4701;51.566;6.776;2022-09-12T11:25:16;101174.78;;;22.14;55.62
9325;BME280;4701;51.566;6.776;2022-09-12T11:27:42;101173.97;;;22.13;55.59
9325;BME280;4701;51.566;6.776;2022-09-12T11:29:56;101171.03;;;22.18;53.99
9325;BME280;4701;51.566;6.776;2022-09-12T11:32:09;101167.28;;;22.14;54.26
9325;BME280;4701;51.566;6.776;2022-09-12T11:34:18;101149.75;;;22.22;54.35
9325;BME280;4701;51.566;6.776;2022-09-12T11:36:32;101158.25;;;22.26;55.24
9325;BME280;4701;51.566;6.776;2022-09-12T11:38:49;101151.22;;;22.29;54.28
9325;BME280;4701;51.566;6.776;2022-09-12T11:40:53;101149.88;;;22.35;54.25
9325;BME280;4701;51.566;6.776;2022-09-12T11:42:59;101151.13;;;22.37;53.52
9325;BME280;4701;51.566;6.776;2022-09-12T11:45:08;101145.88;;;22.44;55.33
9325;BME280;4701;51.566;6.776;2022-09-12T11:47:15;101151.72;;;22.51;55.84
9325;BME280;4701;51.566;6.776;2022-09-12T11:49:24;101146.28;;;22.55;54.69
9325;BME280;4701;51.566;6.776;2022-09-12T11:51:32;101140.06;;;22.58;53.96
9325;BME280;4701;51.566;6.776;2022-09-12T11:53:38;101145.41;;;22.63;53.81
9325;BME280;4701;51.566;6.776;2022-09-12T11:55:47;101137.22;;;22.67;52.19
9325;BME280;4701;51.566;6.776;2022-09-12T11:57:54;101133.16;;;22.64;53.12
9325;BME280;4701;51.566;6.776;2022-09-12T12:00:01;101133.63;;;22.66;52.03
9325;BME280;4701;51.566;6.776;2022-09-12T12:02:10;101134.72;;;22.74;53.13
9325;BME280;4701;51.566;6.776;2022-09-12T12:04:17;101133.53;;;22.83;52.33
9325;BME280;4701;51.566;6.776;2022-09-12T12:06:26;101134.00;;;22.85;53.17
9325;BME280;4701;51.566;6.776;2022-09-12T12:08:32;101130.06;;;22.86;53.77
9325;BME280;4701;51.566;6.776;2022-09-12T12:10:40;101131.72;;;22.87;51.66
9325;BME280;4701;51.566;6.776;2022-09-12T12:12:42;101127.66;;;22.97;53.47
9325;BME280;4701;51.566;6.776;2022-09-12T12:14:46;101130.19;;;23.11;54.11
9325;BME280;4701;51.566;6.776;2022-09-12T12:16:50;101121.88;;;23.23;52.41
9325;BME280;4701;51.566;6.776;2022-09-12T12:18:54;101130.41;;;23.38;52.61
9325;BME280;4701;51.566;6.776;2022-09-12T12:21:18;101122.09;;;23.51;51.24
9325;BME280;4701;51.566;6.776;2022-09-12T12:23:26;101119.88;;;23.56;50.12
9325;BME280;4701;51.566;6.776;2022-09-12T12:25:49;101115.03;;;23.53;50.36
9325;BME280;4701;51.566;6.776;2022-09-12T12:27:54;101116.53;;;23.51;51.45
9325;BME280;4701;51.566;6.776;2022-09-12T12:29:58;101112.25;;;23.53;50.27
9325;BME280;4701;51.566;6.776;2022-09-12T12:32:23;101116.66;;;23.54;47.85
9325;BME280;4701;51.566;6.776;2022-09-12T12:34:28;101113.66;;;23.59;48.58
9325;BME280;4701;51.566;6.776;2022-09-12T12:36:37;101104.41;;;23.80;48.78
9325;BME280;4701;51.566;6.776;2022-09-12T12:38:40;101102.91;;;24.06;47.60
9325;BME280;4701;51.566;6.776;2022-09-12T12:40:42;101098.16;;;24.31;48.72
9325;BME280;4701;51.566;6.776;2022-09-12T12:43:14;101094.69;;;24.74;46.29
9325;BME280;4701;51.566;6.776;2022-09-12T12:48:13;101092.66;;;26.95;41.01
9325;BME280;4701;51.566;6.776;2022-09-12T12:50:21;101094.66;;;26.40;41.04
9325;BME280;4701;51.566;6.776;2022-09-12T12:52:28;101093.72;;;26.52;41.45
9325;BME280;4701;51.566;6.776;2022-09-12T12:54:53;101080.38;;;26.26;40.91
9325;BME280;4701;51.566;6.776;2022-09-12T12:57:14;101078.69;;;26.41;40.82
9325;BME280;4701;51.566;6.776;2022-09-12T12:59:20;101071.72;;;26.50;41.34
9325;BME280;4701;51.566;6.776;2022-09-12T13:01:22;101073.63;;;25.95;41.15
9325;BME280;4701;51.566;6.776;2022-09-12T13:03:27;101070.56;;;25.53;42.25
9325;BME280;4701;51.566;6.776;2022-09-12T13:05:38;101067.41;;;24.96;42.62
9325;BME280;4701;51.566;6.776;2022-09-12T13:07:43;101064.81;;;24.75;43.79
9325;BME280;4701;51.566;6.776;2022-09-12T13:09:50;101065.56;;;24.60;42.80
9325;BME280;4701;51.566;6.776;2022-09-12T13:11:57;101069.56;;;24.46;43.41
9325;BME280;4701;51.566;6.776;2022-09-12T13:14:02;101067.25;;;24.36;43.94
9325;BME280;4701;51.566;6.776;2022-09-12T13:16:04;101047.19;;;24.31;44.54
9325;BME280;4701;51.566;6.776;2022-09-12T13:18:10;101055.44;;;24.27;44.09
9325;BME280;4701;51.566;6.776;2022-09-12T13:20:17;101048.22;;;24.26;42.67
9325;BME280;4701;51.566;6.776;2022-09-12T13:22:21;101041.50;;;24.27;43.43
9325;BME280;4701;51.566;6.776;2022-09-12T13:24:26;101041.03;;;24.25;44.12
9325;BME280;4701;51.566;6.776;2022-09-12T13:26:33;101032.34;;;24.27;44.81
9325;BME280;4701;51.566;6.776;2022-09-12T13:28:35;101030.94;;;24.33;45.00
9325;BME280;4701;51.566;6.776;2022-09-12T13:30:39;101029.56;;;24.27;43.94
9325;BME280;4701;51.566;6.776;2022-09-12T13:32:42;101028.84;;;24.30;44.15
9325;BME280;4701;51.566;6.776;2022-09-12T13:34:58;101034.28;;;24.38;44.20
9325;BME280;4701;51.566;6.776;2022-09-12T13:37:15;101032.53;;;24.46;43.59
9325;BME280;4701;51.566;6.776;2022-09-12T13:39:20;101030.56;;;24.46;42.84
9325;BME280;4701;51.566;6.776;2022-09-12T13:41:45;101035.50;;;24.53;43.28
9325;BME280;4701;51.566;6.776;2022-09-12T13:43:53;101037.69;;;24.60;43.64
9325;BME280;4701;51.566;6.776;2022-09-12T13:45:55;101033.06;;;24.51;43.82
9325;BME280;4701;51.566;6.776;2022-09-12T13:47:59;101027.41;;;24.48;43.67
9325;BME280;4701;51.566;6.776;2022-09-12T13:50:02;101034.56;;;24.61;43.26
9325;BME280;4701;51.566;6.776;2022-09-12T13:52:08;101029.31;;;24.60;42.48
9325;BME280;4701;51.566;6.776;2022-09-12T13:54:17;101023.56;;;24.52;42.26
9325;BME280;4701;51.566;6.776;2022-09-12T13:56:19;101026.81;;;24.55;41.56
9325;BME280;4701;51.566;6.776;2022-09-12T13:58:24;101016.28;;;24.48;42.57
9325;BME280;4701;51.566;6.776;2022-09-12T14:00:27;101019.34;;;24.59;41.74
9325;BME280;4701;51.566;6.776;2022-09-12T14:02:35;101020.22;;;24.75;42.57
9325;BME280;4701;51.566;6.776;2022-09-12T14:04:37;101005.41;;;24.86;42.36
9325;BME280;4701;51.566;6.776;2022-09-12T14:06:56;101008.16;;;24.99;42.25
9325;BME280;4701;51.566;6.776;2022-09-12T14:08:59;101007.91;;;25.19;42.06
9325;BME280;4701;51.566;6.776;2022-09-12T14:11:07;101004.63;;;25.02;41.21
9325;BME280;4701;51.566;6.776;2022-09-12T14:13:11;101002.25;;;25.16;41.44
9325;BME280;4701;51.566;6.776;2022-09-12T14:15:18;101004.03;;;25.08;41.56
9325;BME280;4701;51.566;6.776;2022-09-12T14:17:26;101006.63;;;25.01;41.82
9325;BME280;4701;51.566;6.776;2022-09-12T14:19:29;100999.78;;;24.99;42.15
9325;BME280;4701;51.566;6.776;2022-09-12T14:21:35;100999.13;;;24.89;41.40
9325;BME280;4701;51.566;6.776;2022-09-12T14:23:39;100995.41;;;24.85;42.34
9325;BME280;4701;51.566;6.776;2022-09-12T14:25:43;100986.22;;;24.85;42.41
9325;BME280;4701;51.566;6.776;2022-09-12T14:27:50;100980.31;;;24.86;42.56
9325;BME280;4701;51.566;6.776;2022-09-12T14:29:59;100980.59;;;24.81;42.01
9325;BME280;4701;51.566;6.776;2022-09-12T14:32:03;100985.88;;;24.86;42.80
9325;BME280;4701;51.566;6.776;2022-09-12T14:34:11;100975.88;;;24.98;42.35
9325;BME280;4701;51.566;6.776;2022-09-12T14:36:20;100976.50;;;25.07;42.56
9325;BME280;4701;51.566;6.776;2022-09-12T14:38:30;100975.06;;;24.97;41.89
9325;BME280;4701;51.566;6.776;2022-09-12T14:40:40;100969.63;;;24.88;40.90
9325;BME280;4701;51.566;6.776;2022-09-12T14:42:42;100960.84;;;25.02;41.26
9325;BME280;4701;51.566;6.776;2022-09-12T14:44:51;100951.75;;;25.21;41.16
9325;BME280;4701;51.566;6.776;2022-09-12T14:46:59;100957.44;;;25.24;41.15
9325;BME280;4701;51.566;6.776;2022-09-12T14:49:07;100962.28;;;25.27;40.76
9325;BME280;4701;51.566;6.776;2022-09-12T14:51:19;100955.53;;;25.29;41.72
9325;BME280;4701;51.566;6.776;2022-09-12T14:53:30;100954.66;;;25.24;41.88
9325;BME280;4701;51.566;6.776;2022-09-12T14:55:39;100955.53;;;25.13;41.56
9325;BME280;4701;51.566;6.776;2022-09-12T14:57:42;100955.09;;;25.11;41.28
9325;BME280;4701;51.566;6.776;2022-09-12T14:59:44;100951.31;;;25.19;41.85
9325;BME280;4701;51.566;6.776;2022-09-12T15:01:46;100949.25;;;25.32;42.16
9325;BME280;4701;51.566;6.776;2022-09-12T15:03:50;100946.06;;;25.49;42.12
9325;BME280;4701;51.566;6.776;2022-09-12T15:05:54;100943.44;;;25.56;40.90
9325;BME280;4701;51.566;6.776;2022-09-12T15:07:58;100940.28;;;25.57;40.29
9325;BME280;4701;51.566;6.776;2022-09-12T15:10:02;100935.00;;;25.68;39.68
9325;BME280;4701;51.566;6.776;2022-09-12T15:12:04;100932.06;;;25.80;38.47
9325;BME280;4701;51.566;6.776;2022-09-12T15:14:11;100928.25;;;25.88;38.40
9325;BME280;4701;51.566;6.776;2022-09-12T15:16:13;100934.38;;;25.94;39.06
9325;BME280;4701;51.566;6.776;2022-09-12T15:18:15;100934.81;;;25.96;39.23
9325;BME280;4701;51.566;6.776;2022-09-12T15:20:18;100930.25;;;25.88;39.16
9325;BME280;4701;51.566;6.776;2022-09-12T15:22:22;100932.75;;;25.93;39.55
9325;BME280;4701;51.566;6.776;2022-09-12T15:24:25;100937.19;;;25.78;38.55
9325;BME280;4701;51.566;6.776;2022-09-12T15:26:27;100934.00;;;25.95;39.03
9325;BME280;4701;51.566;6.776;2022-09-12T15:28:31;100932.09;;;25.99;38.26
9325;BME280;4701;51.566;6.776;2022-09-12T15:30:33;100926.88;;;25.98;38.67
9325;BME280;4701;51.566;6.776;2022-09-12T15:32:35;100929.38;;;26.03;38.52
9325;BME280;4701;51.566;6.776;2022-09-12T15:34:37;100928.94;;;26.59;39.15
9325;BME280;4701;51.566;6.776;2022-09-12T15:36:39;100926.47;;;26.96;38.06
9325;BME280;4701;51.566;6.776;2022-09-12T15:38:42;100927.13;;;27.12;37.64
9325;BME280;4701;51.566;6.776;2022-09-12T15:40:48;100919.97;;;27.41;36.75
9325;BME280;4701;51.566;6.776;2022-09-12T15:42:52;100921.53;;;27.12;36.93
9325;BME280;4701;51.566;6.776;2022-09-12T15:44:54;100920.06;;;26.95;37.38
9325;BME280;4701;51.566;6.776;2022-09-12T15:46:56;100914.53;;;26.57;38.43
9325;BME280;4701;51.566;6.776;2022-09-12T15:48:57;100920.94;;;26.38;39.10
9325;BME280;4701;51.566;6.776;2022-09-12T15:50:59;100914.38;;;25.92;39.39
9325;BME280;4701;51.566;6.776;2022-09-12T15:53:03;100913.84;;;25.86;39.92
9325;BME280;4701;51.566;6.776;2022-09-12T15:55:13;100895.78;;;25.80;40.63
9325;BME280;4701;51.566;6.776;2022-09-12T15:57:17;100904.91;;;25.77;40.25
9325;BME280;4701;51.566;6.776;2022-09-12T15:59:19;100902.00;;;25.74;40.42
9325;BME280;4701;51.566;6.776;2022-09-12T16:01:21;100899.94;;;25.71;40.47
9325;BME280;4701;51.566;6.776;2022-09-12T16:03:24;100896.13;;;25.59;40.80
9325;BME280;4701;51.566;6.776;2022-09-12T16:05:27;100895.38;;;25.47;40.45
9325;BME280;4701;51.566;6.776;2022-09-12T16:07:29;100888.31;;;25.34;40.92
9325;BME280;4701;51.566;6.776;2022-09-12T16:09:31;100883.19;;;25.20;40.72
9325;BME280;4701;51.566;6.776;2022-09-12T16:11:35;100881.75;;;25.10;41.68
9325;BME280;4701;51.566;6.776;2022-09-12T16:13:37;100878.53;;;25.08;41.78
9325;BME280;4701;51.566;6.776;2022-09-12T16:15:38;100875.81;;;25.12;41.54
9325;BME280;4701;51.566;6.776;2022-09-12T16:17:40;100871.50;;;25.14;41.89